Time;durP1;ratioP1;P1;durP2;ratioP2;P2;SDS_P1;SDS_P2;PMS_P1;PMS_P2;Temp;Humidity;BMP_temperature;BMP_pressure;BME280_temperature;BME280_humidity;BME280_pressure;Samples;Min_cycle;Max_cycle;Signal;HPM_P1;HPM_P2
2021/01/24 00:02:12;;;;;;;5.70;4.67;;;4.10;49.30;;;;;;5075786;28;20179;-69
2021/01/24 00:04:38;;;;;;;5.40;4.90;;;4.40;1.00;;;;;;5075660;28;20172;-68
2021/01/24 00:07:03;;;;;;;6.17;5.00;;;4.40;1.00;;;;;;5075630;28;20172;-68
2021/01/24 00:09:29;;;;;;;5.20;4.63;;;4.40;1.00;;;;;;5075553;28;20277;-69
2021/01/24 00:11:55;;;;;;;6.77;5.10;;;4.50;99.90;;;;;;5075426;28;20274;-68
2021/01/24 00:14:20;;;;;;;4.73;4.10;;;4.40;99.90;;;;;;5075775;28;20165;-67
2021/01/24 00:16:46;;;;;;;4.60;3.90;;;4.40;1.00;;;;;;5075490;28;20160;-69
2021/01/24 00:19:11;;;;;;;5.77;5.27;;;4.50;1.00;;;;;;5075012;28;20165;-68
2021/01/24 00:21:38;;;;;;;5.53;4.90;;;4.60;99.90;;;;;;5076401;28;20251;-69
2021/01/24 00:24:04;;;;;;;6.00;4.93;;;4.60;99.90;;;;;;5075840;28;20172;-68
2021/01/24 00:26:30;;;;;;;5.53;4.95;;;4.60;99.90;;;;;;5075348;28;20168;-69
2021/01/24 00:28:55;;;;;;;4.60;3.70;;;4.70;99.90;;;;;;5075301;28;20179;-69
2021/01/24 00:31:21;;;;;;;5.97;4.90;;;4.30;99.90;;;;;;5075135;28;20191;-69
2021/01/24 00:33:46;;;;;;;5.77;4.23;;;4.30;1.00;;;;;;5075192;28;20169;-69
2021/01/24 00:36:14;;;;;;;5.10;4.60;;;4.60;1.00;;;;;;5075136;28;20168;-69
2021/01/24 00:38:39;;;;;;;6.10;4.95;;;4.50;99.90;;;;;;5075092;28;20171;-67
2021/01/24 00:41:05;;;;;;;5.00;4.43;;;4.20;1.00;;;;;;5074942;28;20552;-69
2021/01/24 00:43:32;;;;;;;4.53;4.13;;;4.40;1.00;;;;;;5074986;28;20641;-69
2021/01/24 00:45:58;;;;;;;4.65;4.25;;;4.50;99.90;;;;;;5074940;28;20217;-69
2021/01/24 00:48:24;;;;;;;6.22;4.88;;;4.60;99.90;;;;;;5074757;28;20186;-68
2021/01/24 00:50:50;;;;;;;7.10;5.10;;;4.60;99.90;;;;;;5074799;28;20184;-68
2021/01/24 00:53:15;;;;;;;5.50;4.70;;;4.60;99.90;;;;;;5074918;28;20246;-69
2021/01/24 00:55:41;;;;;;;7.00;4.60;;;4.40;99.90;;;;;;5074756;28;20411;-69
2021/01/24 00:58:07;;;;;;;6.30;5.10;;;4.50;99.90;;;;;;5074666;28;20221;-68
2021/01/24 01:00:32;;;;;;;5.10;4.60;;;4.50;99.90;;;;;;5074591;28;20187;-66
2021/01/24 01:02:58;;;;;;;5.10;4.57;;;4.50;99.90;;;;;;5074664;28;20267;-69
2021/01/24 01:05:23;;;;;;;5.73;5.07;;;4.40;99.90;;;;;;5074554;28;20180;-69
2021/01/24 01:07:49;;;;;;;5.97;4.20;;;4.60;99.90;;;;;;5074516;28;20176;-69
2021/01/24 01:10:15;;;;;;;5.20;4.33;;;4.50;99.90;;;;;;5074409;28;20191;-69
2021/01/24 01:12:40;;;;;;;5.90;4.97;;;4.20;99.90;;;;;;5074620;28;20219;-69
2021/01/24 01:15:07;;;;;;;5.40;4.90;;;4.20;99.90;;;;;;5074397;28;20636;-68
2021/01/24 01:17:32;;;;;;;5.95;4.60;;;4.00;1.00;;;;;;5074205;28;20191;-69
2021/01/24 01:19:58;;;;;;;5.13;4.67;;;4.10;1.00;;;;;;5074277;28;20180;-69
2021/01/24 01:22:23;;;;;;;7.60;5.10;;;4.30;1.00;;;;;;5074563;28;20172;-68
2021/01/24 01:24:49;;;;;;;5.70;4.60;;;4.50;99.90;;;;;;5074188;28;20164;-69
2021/01/24 01:27:14;;;;;;;5.40;4.83;;;4.30;1.00;;;;;;5074092;28;20217;-67
2021/01/24 01:29:40;;;;;;;5.83;4.80;;;4.40;99.90;;;;;;5074314;28;20184;-69
2021/01/24 01:32:06;;;;;;;5.73;4.80;;;4.40;99.90;;;;;;5073055;28;20195;-69
2021/01/24 01:34:31;;;;;;;6.00;5.50;;;4.50;99.90;;;;;;5073973;28;20168;-69
2021/01/24 01:36:57;;;;;;;5.80;5.30;;;4.30;1.00;;;;;;5073986;28;20274;-69
2021/01/24 01:39:22;;;;;;;5.40;4.90;;;4.40;1.00;;;;;;5073803;28;20164;-69
2021/01/24 01:41:48;;;;;;;6.20;5.30;;;4.40;99.90;;;;;;5073854;28;20570;-69
2021/01/24 01:44:13;;;;;;;6.30;4.97;;;4.40;99.90;;;;;;5073835;28;20172;-69
2021/01/24 01:46:40;;;;;;;6.47;5.57;;;4.50;99.90;;;;;;5074262;28;20300;-69
2021/01/24 01:49:06;;;;;;;6.00;5.40;;;4.50;99.90;;;;;;5073579;28;20560;-68
2021/01/24 01:51:32;;;;;;;7.60;5.23;;;4.40;99.90;;;;;;5073658;28;20172;-68
2021/01/24 01:53:59;;;;;;;5.10;4.60;;;4.40;99.90;;;;;;5073562;28;20707;-68
2021/01/24 01:56:25;;;;;;;8.35;5.80;;;4.30;99.90;;;;;;5074249;28;20637;-67
2021/01/24 01:58:50;;;;;;;6.83;5.20;;;4.20;99.90;;;;;;5074523;28;20182;-69
2021/01/24 02:01:45;;;;;;;6.70;5.43;;;4.30;99.90;;;;;;5074794;28;20522;-69
2021/01/24 02:04:28;;;;;;;7.20;5.55;;;3.90;99.90;;;;;;5065971;28;20184;-69
2021/01/24 02:07:02;;;;;;;5.78;5.22;;;4.00;1.00;;;;;;5073650;28;20613;-68
2021/01/24 02:09:36;;;;;;;3.30;3.10;;;3.90;99.90;;;;;;5073233;28;20202;-68
2021/01/24 02:12:38;;;;;;;4.15;3.22;;;3.10;1.00;;;;;;5073231;28;20179;-68
2021/01/24 02:15:07;;;;;;;3.70;3.38;;;2.80;99.90;;;;;;5073544;28;20152;-68
2021/01/24 02:17:42;;;;;;;3.55;3.25;;;2.70;99.90;;;;;;5073205;28;20338;-68
2021/01/24 02:20:08;;;;;;;2.38;2.10;;;2.80;99.90;;;;;;5073322;28;20609;-68
2021/01/24 02:22:37;;;;;;;2.83;2.53;;;2.60;99.90;;;;;;5073124;28;20176;-69
2021/01/24 02:25:15;;;;;;;2.85;2.45;;;2.40;1.00;;;;;;5073060;28;20194;-68
2021/01/24 02:28:20;;;;;;;3.35;2.80;;;2.20;1.00;;;;;;5073444;28;20517;-68
2021/01/24 02:30:46;;;;;;;3.85;2.03;;;2.20;99.90;;;;;;5031182;28;20197;-68
2021/01/24 02:33:17;;;;;;;2.30;2.10;;;2.10;99.90;;;;;;5065905;28;20203;-68
2021/01/24 02:35:46;;;;;;;4.28;3.15;;;2.10;1.00;;;;;;5073123;28;20214;-68
2021/01/24 02:38:12;;;;;;;3.65;3.35;;;2.20;99.90;;;;;;5072957;28;20180;-68
2021/01/24 02:40:40;;;;;;;5.53;4.47;;;2.20;1.00;;;;;;5072801;28;20762;-68
2021/01/24 02:43:10;;;;;;;6.38;4.80;;;2.00;99.90;;;;;;5072930;28;20218;-68
2021/01/24 02:45:40;;;;;;;5.55;4.97;;;1.70;99.90;;;;;;5072844;28;20172;-68
2021/01/24 02:48:06;;;;;;;4.78;3.40;;;1.70;1.00;;;;;;5072698;28;20191;-68
2021/01/24 02:50:33;;;;;;;4.03;3.63;;;1.60;1.00;;;;;;5072748;28;20189;-68
2021/01/24 02:52:59;;;;;;;5.97;4.35;;;1.70;82.50;;;;;;5072699;28;20619;-69
2021/01/24 02:55:26;;;;;;;3.58;3.28;;;1.80;90.70;;;;;;5072757;28;20514;-68
2021/01/24 02:57:52;;;;;;;4.88;3.70;;;1.60;1.00;;;;;;5073010;28;20156;-68
2021/01/24 03:00:19;;;;;;;3.67;3.17;;;1.50;70.20;;;;;;5072742;28;20599;-67
2021/01/24 03:02:45;;;;;;;3.10;2.80;;;1.50;99.90;;;;;;5072593;28;20221;-68
2021/01/24 03:05:11;;;;;;;2.30;1.90;;;1.40;99.90;;;;;;5072631;28;20168;-67
2021/01/24 03:07:37;;;;;;;2.90;1.38;;;1.30;99.90;;;;;;5072344;28;20214;-68
2021/01/24 03:10:05;;;;;;;2.95;2.30;;;1.20;99.90;;;;;;5072697;28;20192;-68
2021/01/24 03:12:36;;;;;;;1.17;1.00;;;1.20;99.90;;;;;;5072543;28;20517;-68
2021/01/24 03:15:04;;;;;;;1.65;1.55;;;1.10;99.90;;;;;;5072640;28;20523;-68
2021/01/24 03:17:34;;;;;;;3.50;1.90;;;1.20;99.90;;;;;;5072498;28;20164;-68
2021/01/24 03:20:03;;;;;;;2.35;1.80;;;1.20;99.90;;;;;;5072485;28;20279;-68
2021/01/24 03:22:29;;;;;;;4.15;2.33;;;1.20;99.90;;;;;;5072426;28;20199;-68
2021/01/24 03:24:56;;;;;;;3.50;2.60;;;1.20;99.90;;;;;;5072496;28;20172;-68
2021/01/24 03:27:23;;;;;;;3.60;2.45;;;1.20;99.90;;;;;;5072529;28;20406;-68
2021/01/24 03:29:48;;;;;;;4.40;3.13;;;1.20;99.90;;;;;;5072330;28;20597;-67
2021/01/24 03:32:15;;;;;;;5.73;3.83;;;1.20;99.90;;;;;;5072332;28;20271;-69
2021/01/24 03:34:40;;;;;;;4.72;4.18;;;1.20;99.90;;;;;;5072536;28;20164;-68
2021/01/24 03:37:06;;;;;;;5.80;4.17;;;1.20;99.90;;;;;;5072366;28;20501;-68
2021/01/24 03:39:31;;;;;;;5.70;3.60;;;1.10;99.90;;;;;;5072302;28;20195;-68
2021/01/24 03:41:57;;;;;;;5.33;4.93;;;1.20;99.90;;;;;;5072339;28;20161;-68
2021/01/24 03:44:23;;;;;;;4.73;4.00;;;1.10;99.90;;;;;;5072303;28;20206;-68
2021/01/24 03:46:48;;;;;;;2.53;2.33;;;1.10;99.90;;;;;;5072260;28;20224;-69
2021/01/24 03:49:14;;;;;;;5.67;2.93;;;1.10;99.90;;;;;;5072190;28;20176;-68
2021/01/24 03:51:40;;;;;;;3.13;2.20;;;1.00;99.90;;;;;;5072420;28;20255;-68
2021/01/24 03:54:06;;;;;;;3.50;3.20;;;0.90;99.90;;;;;;5072097;28;20246;-68
2021/01/24 03:56:31;;;;;;;2.67;2.30;;;1.00;99.90;;;;;;5076098;28;20212;-68
2021/01/24 03:58:57;;;;;;;2.23;2.03;;;1.00;99.90;;;;;;5075903;28;20217;-68
2021/01/24 04:01:22;;;;;;;1.90;1.80;;;1.00;99.90;;;;;;5075730;28;20195;-68
2021/01/24 04:03:48;;;;;;;2.90;1.67;;;0.90;99.90;;;;;;5075825;28;20556;-68
2021/01/24 04:06:13;;;;;;;1.43;1.20;;;1.00;99.90;;;;;;5075741;28;20164;-68
2021/01/24 04:08:39;;;;;;;1.53;1.10;;;1.00;99.90;;;;;;5075735;28;20572;-68
2021/01/24 04:11:05;;;;;;;1.37;1.27;;;1.00;99.90;;;;;;5075756;28;20188;-68
2021/01/24 04:13:30;;;;;;;1.47;1.17;;;1.00;99.90;;;;;;5075848;28;20242;-68
2021/01/24 04:15:56;;;;;;;1.63;1.50;;;1.00;99.90;;;;;;5075629;28;20640;-68
2021/01/24 04:18:21;;;;;;;1.97;1.33;;;1.10;99.90;;;;;;5075566;28;20168;-68
2021/01/24 04:20:47;;;;;;;1.70;1.33;;;1.10;99.90;;;;;;5075443;28;20183;-67
2021/01/24 04:23:13;;;;;;;1.50;1.10;;;1.00;99.90;;;;;;5075692;28;20180;-68
2021/01/24 04:25:39;;;;;;;1.93;1.63;;;1.00;99.90;;;;;;5075486;28;20168;-68
2021/01/24 04:28:05;;;;;;;1.65;1.23;;;1.00;99.90;;;;;;5075364;28;20548;-68
2021/01/24 04:30:30;;;;;;;1.27;0.83;;;1.10;99.90;;;;;;5075261;28;20188;-68
2021/01/24 04:32:56;;;;;;;2.00;1.10;;;1.00;99.90;;;;;;5075214;28;20432;-68
2021/01/24 04:35:22;;;;;;;1.20;0.80;;;0.90;99.90;;;;;;5075275;28;20164;-67
2021/01/24 04:37:48;;;;;;;0.90;0.70;;;1.20;99.90;;;;;;5075911;28;20168;-68
2021/01/24 04:40:14;;;;;;;2.85;0.95;;;1.10;99.90;;;;;;5075610;28;20184;-68
2021/01/24 04:42:41;;;;;;;1.20;0.80;;;1.10;99.90;;;;;;5075206;28;20168;-68
2021/01/24 04:45:07;;;;;;;2.05;1.38;;;1.00;99.90;;;;;;5075113;28;20549;-68
2021/01/24 04:47:34;;;;;;;1.70;1.40;;;1.00;99.90;;;;;;5075081;28;20191;-68
2021/01/24 04:50:01;;;;;;;1.90;1.25;;;1.10;99.90;;;;;;5075236;28;20192;-68
2021/01/24 04:52:27;;;;;;;4.18;2.28;;;1.00;99.90;;;;;;5074793;28;20188;-68
2021/01/24 04:54:54;;;;;;;4.05;2.38;;;1.00;99.90;;;;;;5075115;28;20231;-67
2021/01/24 04:57:21;;;;;;;1.90;1.70;;;1.00;99.90;;;;;;5074875;28;20168;-68
2021/01/24 04:59:46;;;;;;;1.95;1.55;;;0.90;99.90;;;;;;5074780;28;20196;-68
2021/01/24 05:02:14;;;;;;;3.27;2.07;;;1.00;99.90;;;;;;5073523;28;20188;-68
2021/01/24 05:04:39;;;;;;;2.03;1.50;;;1.00;99.90;;;;;;5074681;28;20164;-68
2021/01/24 05:07:05;;;;;;;1.70;1.10;;;0.90;99.90;;;;;;5074490;28;20686;-68
2021/01/24 05:09:31;;;;;;;1.47;1.07;;;0.80;99.90;;;;;;5074552;28;20242;-68
2021/01/24 05:11:56;;;;;;;2.60;1.30;;;0.90;99.90;;;;;;5074479;28;20286;-68
2021/01/24 05:14:25;;;;;;;1.20;0.90;;;0.90;99.90;;;;;;5074499;28;20160;-68
2021/01/24 05:16:53;;;;;;;1.10;0.80;;;0.80;99.90;;;;;;5074533;28;20541;-68
2021/01/24 05:19:21;;;;;;;0.98;0.60;;;0.80;99.90;;;;;;5074471;28;20191;-68
2021/01/24 05:21:47;;;;;;;1.38;1.00;;;0.80;99.90;;;;;;5074382;28;20179;-67
2021/01/24 05:24:15;;;;;;;1.88;1.40;;;0.80;99.90;;;;;;5074361;28;20179;-68
2021/01/24 05:26:46;;;;;;;0.80;0.60;;;0.80;99.90;;;;;;5074587;28;20164;-68
2021/01/24 05:29:27;;;;;;;1.80;1.10;;;0.80;99.90;;;;;;5074042;28;20194;-67
2021/01/24 05:31:56;;;;;;;1.13;1.02;;;0.80;99.90;;;;;;5074145;28;20196;-68
2021/01/24 05:34:26;;;;;;;2.33;0.95;;;0.90;99.90;;;;;;5074455;28;20170;-68
2021/01/24 05:36:51;;;;;;;1.45;1.02;;;0.90;99.90;;;;;;5074065;28;20182;-68
2021/01/24 05:39:18;;;;;;;0.90;0.80;;;0.90;99.90;;;;;;5073993;28;20164;-67
2021/01/24 05:41:53;;;;;;;1.40;1.10;;;0.80;99.90;;;;;;5074011;28;20783;-68
2021/01/24 05:44:20;;;;;;;1.40;0.98;;;0.90;99.90;;;;;;5074318;28;20235;-68
2021/01/24 05:46:46;;;;;;;2.05;1.65;;;0.90;99.90;;;;;;5074199;28;20160;-68
2021/01/24 05:49:14;;;;;;;1.83;1.42;;;1.00;99.90;;;;;;5073654;28;20191;-68
2021/01/24 05:51:41;;;;;;;1.23;1.13;;;1.00;99.90;;;;;;5073760;28;20192;-68
2021/01/24 05:54:06;;;;;;;1.40;1.30;;;0.90;99.90;;;;;;5073790;28;20172;-67
2021/01/24 05:56:32;;;;;;;1.63;1.30;;;0.90;99.90;;;;;;5073722;28;20157;-68
2021/01/24 05:59:03;;;;;;;2.40;2.00;;;0.90;99.90;;;;;;5073728;28;20168;-68
2021/01/24 06:01:30;;;;;;;2.05;1.15;;;1.10;99.90;;;;;;5073506;28;20187;-68
2021/01/24 06:03:59;;;;;;;2.05;1.60;;;1.00;99.90;;;;;;5073625;28;20190;-67
2021/01/24 06:06:25;;;;;;;2.00;1.40;;;1.00;99.90;;;;;;5073562;28;20233;-68
2021/01/24 06:08:51;;;;;;;1.53;1.03;;;1.10;99.90;;;;;;5073550;28;20563;-67
2021/01/24 06:11:18;;;;;;;2.60;1.70;;;0.90;99.90;;;;;;5073456;28;20418;-67
2021/01/24 06:13:48;;;;;;;1.92;1.73;;;1.20;99.90;;;;;;5073223;28;20202;-68
2021/01/24 06:16:36;;;;;;;1.70;1.13;;;1.00;99.90;;;;;;5073601;28;20628;-68
2021/01/24 06:19:08;;;;;;;1.42;1.15;;;1.00;99.90;;;;;;5073292;28;20163;-68
2021/01/24 06:21:37;;;;;;;2.05;1.13;;;1.00;99.90;;;;;;5073268;28;20251;-68
2021/01/24 06:24:21;;;;;;;1.20;1.10;;;1.00;99.90;;;;;;5073288;28;20160;-68
2021/01/24 06:26:53;;;;;;;1.70;1.60;;;1.00;99.90;;;;;;5073255;28;20145;-68
2021/01/24 06:29:21;;;;;;;2.30;1.50;;;1.00;99.90;;;;;;5073169;28;20164;-68
2021/01/24 06:31:48;;;;;;;1.50;1.20;;;1.00;99.90;;;;;;5073112;28;20530;-68
2021/01/24 06:34:14;;;;;;;1.83;1.13;;;1.00;99.90;;;;;;5073204;28;20168;-68
2021/01/24 06:37:08;;;;;;;1.30;0.80;;;1.10;99.90;;;;;;5073128;28;20525;-67
2021/01/24 06:39:47;;;;;;;2.90;1.63;;;1.10;99.90;;;;;;5073007;28;20188;-68
2021/01/24 06:42:33;;;;;;;1.98;1.60;;;1.10;99.90;;;;;;5073332;28;20648;-68
2021/01/24 06:44:58;;;;;;;2.20;1.58;;;1.10;99.90;;;;;;5072824;28;20180;-67
2021/01/24 06:47:39;;;;;;;1.67;1.43;;;1.10;99.90;;;;;;5072906;28;20648;-68
2021/01/24 06:50:37;;;;;;;3.05;2.10;;;1.10;99.90;;;;;;5072856;28;20187;-68
2021/01/24 06:53:33;;;;;;;2.72;1.92;;;1.40;99.90;;;;;;5072917;28;20297;-68
2021/01/24 06:56:06;;;;;;;2.80;2.35;;;1.10;99.90;;;;;;5070688;28;20188;-68
2021/01/24 06:58:34;;;;;;;3.08;2.05;;;1.20;99.90;;;;;;5072841;28;20160;-68
2021/01/24 07:01:22;;;;;;;2.55;2.33;;;1.20;99.90;;;;;;5072840;28;20181;-68
2021/01/24 07:03:48;;;;;;;3.45;2.58;;;1.20;99.90;;;;;;5072999;28;20172;-67
2021/01/24 07:06:33;;;;;;;6.35;3.90;;;1.30;99.90;;;;;;5073003;28;20183;-68
2021/01/24 07:08:59;;;;;;;4.50;3.03;;;1.30;99.90;;;;;;5072685;28;20190;-67
2021/01/24 07:11:51;;;;;;;4.68;3.70;;;1.20;99.90;;;;;;5072727;28;20211;-68
2021/01/24 07:14:34;;;;;;;4.97;3.55;;;1.30;99.90;;;;;;5072812;28;20199;-68
2021/01/24 07:17:03;;;;;;;5.68;3.85;;;1.20;99.90;;;;;;5072644;28;20176;-68
2021/01/24 07:19:30;;;;;;;5.53;3.47;;;1.20;99.90;;;;;;5072603;28;20188;-68
2021/01/24 07:21:56;;;;;;;5.57;3.90;;;1.20;99.90;;;;;;5072613;28;20192;-68
2021/01/24 07:24:22;;;;;;;5.60;4.40;;;1.30;99.90;;;;;;5072642;28;20589;-68
2021/01/24 07:26:48;;;;;;;7.80;4.70;;;1.30;99.90;;;;;;5072612;28;20243;-68
2021/01/24 07:29:14;;;;;;;5.78;4.20;;;1.40;99.90;;;;;;5072682;28;20526;-68
2021/01/24 07:31:40;;;;;;;4.80;4.20;;;1.30;99.90;;;;;;5076517;28;20160;-67
2021/01/24 07:34:07;;;;;;;6.93;5.10;;;1.50;99.90;;;;;;5075249;28;20313;-68
2021/01/24 07:36:34;;;;;;;6.35;4.65;;;1.30;99.90;;;;;;5076436;28;20179;-68
2021/01/24 07:39:00;;;;;;;4.18;3.47;;;1.40;99.90;;;;;;5076651;28;20524;-68
2021/01/24 07:41:26;;;;;;;4.80;4.03;;;1.40;99.90;;;;;;5076115;28;20183;-68
2021/01/24 07:43:52;;;;;;;9.93;4.20;;;1.40;99.90;;;;;;5076479;28;20167;-68
2021/01/24 07:46:17;;;;;;;4.70;3.22;;;1.40;99.90;;;;;;5076416;28;20172;-68
2021/01/24 07:48:43;;;;;;;4.90;4.00;;;1.30;99.90;;;;;;5076022;28;20179;-68
2021/01/24 07:51:09;;;;;;;5.83;4.70;;;1.30;99.90;;;;;;5076015;28;20678;-69
2021/01/24 07:53:34;;;;;;;5.70;4.07;;;1.30;99.90;;;;;;5075972;28;20672;-69
2021/01/24 07:56:01;;;;;;;7.60;4.87;;;1.50;99.90;;;;;;5075956;28;20172;-68
2021/01/24 07:58:26;;;;;;;5.25;4.28;;;1.50;99.90;;;;;;5076097;28;20168;-68
2021/01/24 08:00:52;;;;;;;8.67;5.30;;;1.40;99.90;;;;;;5075824;28;20237;-68
2021/01/24 08:03:20;;;;;;;7.30;5.85;;;1.40;99.90;;;;;;5075974;28;20172;-69
2021/01/24 08:05:46;;;;;;;10.68;5.20;;;1.40;99.90;;;;;;5075835;28;20168;-68
2021/01/24 08:08:11;;;;;;;10.00;6.50;;;1.40;99.90;;;;;;5075798;28;20164;-68
2021/01/24 08:10:37;;;;;;;12.53;7.90;;;1.40;99.90;;;;;;5075697;28;20429;-68
2021/01/24 08:13:03;;;;;;;9.57;5.40;;;1.50;99.90;;;;;;5075831;28;20200;-69
2021/01/24 08:15:28;;;;;;;11.10;5.67;;;1.40;99.90;;;;;;5075936;28;20528;-68
2021/01/24 08:17:57;;;;;;;12.83;6.90;;;1.50;99.90;;;;;;5076044;28;20235;-68
2021/01/24 08:20:24;;;;;;;12.85;7.38;;;1.50;99.90;;;;;;5075784;28;20192;-68
2021/01/24 08:22:50;;;;;;;10.48;6.70;;;1.60;99.90;;;;;;5075577;28;20179;-69
2021/01/24 08:25:16;;;;;;;10.73;6.25;;;1.50;99.90;;;;;;5075510;28;20176;-68
2021/01/24 08:27:44;;;;;;;9.95;6.88;;;1.50;99.90;;;;;;5075406;28;20222;-68
2021/01/24 08:30:10;;;;;;;11.90;6.57;;;1.50;99.90;;;;;;5075302;28;20185;-68
2021/01/24 08:32:41;;;;;;;15.05;7.05;;;1.50;99.90;;;;;;5075397;28;20191;-68
2021/01/24 08:35:08;;;;;;;10.82;7.22;;;1.60;99.90;;;;;;5075368;28;20186;-69
2021/01/24 08:37:35;;;;;;;16.17;8.57;;;1.70;99.90;;;;;;5075414;28;20160;-68
2021/01/24 08:40:03;;;;;;;16.38;10.48;;;1.50;99.90;;;;;;5074752;28;20184;-69
2021/01/24 08:42:45;;;;;;;14.90;9.48;;;1.70;99.90;;;;;;5075306;28;20698;-68
2021/01/24 08:45:17;;;;;;;16.35;9.52;;;1.60;99.90;;;;;;5074987;28;20157;-68
2021/01/24 08:47:53;;;;;;;18.65;10.48;;;1.60;99.90;;;;;;5075021;28;20199;-67
2021/01/24 08:50:18;;;;;;;17.90;12.30;;;1.60;99.90;;;;;;5074968;28;20278;-69
2021/01/24 08:52:44;;;;;;;20.93;11.90;;;1.60;99.90;;;;;;5074812;28;20267;-69
2021/01/24 08:55:10;;;;;;;21.50;13.87;;;1.80;99.90;;;;;;5074877;28;20644;-69
2021/01/24 08:57:37;;;;;;;22.90;13.50;;;1.60;99.90;;;;;;5074920;28;20210;-69
2021/01/24 09:00:08;;;;;;;22.63;13.73;;;1.90;99.90;;;;;;5074887;28;20418;-69
2021/01/24 09:02:38;;;;;;;28.40;14.93;;;2.00;99.90;;;;;;5074733;28;20164;-68
2021/01/24 09:05:06;;;;;;;23.48;14.07;;;1.80;99.90;;;;;;5074497;28;20190;-69
2021/01/24 09:07:48;;;;;;;24.73;15.13;;;1.70;99.90;;;;;;5074983;28;20168;-69
2021/01/24 09:10:22;;;;;;;31.15;17.30;;;1.90;99.90;;;;;;5074465;28;20191;-68
2021/01/24 09:12:50;;;;;;;22.80;14.40;;;2.00;99.90;;;;;;5074546;28;20314;-69
2021/01/24 09:15:17;;;;;;;28.40;16.92;;;1.80;99.90;;;;;;5074497;28;20191;-69
2021/01/24 09:17:43;;;;;;;28.00;16.83;;;2.10;99.90;;;;;;5074755;28;20209;-69
2021/01/24 09:20:10;;;;;;;26.90;17.43;;;2.00;99.90;;;;;;5074243;28;20188;-69
2021/01/24 09:22:35;;;;;;;28.05;16.50;;;2.00;99.90;;;;;;5073103;28;20518;-68
2021/01/24 09:25:03;;;;;;;27.20;16.33;;;2.00;99.90;;;;;;5074309;28;20246;-69
2021/01/24 09:27:28;;;;;;;26.17;14.68;;;2.00;99.90;;;;;;5074022;28;20897;-69
2021/01/24 09:29:54;;;;;;;25.30;17.27;;;1.90;99.90;;;;;;5074178;28;20196;-69
2021/01/24 09:32:21;;;;;;;28.33;16.23;;;2.00;99.90;;;;;;5074176;28;20266;-69
2021/01/24 09:34:46;;;;;;;30.40;16.70;;;2.00;99.90;;;;;;5074478;28;20570;-68
2021/01/24 09:37:12;;;;;;;25.30;14.10;;;2.00;99.90;;;;;;5074039;28;20168;-69
2021/01/24 09:39:38;;;;;;;26.93;16.50;;;1.90;99.90;;;;;;5073963;28;20692;-68
2021/01/24 09:42:04;;;;;;;21.10;12.53;;;1.80;99.90;;;;;;5073979;28;20164;-69
2021/01/24 09:44:29;;;;;;;23.95;14.10;;;1.90;99.90;;;;;;5073851;28;20406;-69
2021/01/24 09:46:55;;;;;;;23.47;14.73;;;1.80;99.90;;;;;;5073624;28;20605;-69
2021/01/24 09:49:21;;;;;;;28.97;15.93;;;1.80;99.90;;;;;;5073643;28;20163;-69
2021/01/24 09:51:46;;;;;;;27.33;16.00;;;1.80;99.90;;;;;;5073243;28;20172;-68
2021/01/24 09:54:15;;;;;;;29.83;16.50;;;1.80;99.90;;;;;;5073876;28;20168;-69
2021/01/24 09:56:40;;;;;;;32.58;16.20;;;1.80;99.90;;;;;;5074275;28;20165;-69
2021/01/24 09:59:06;;;;;;;26.27;13.17;;;2.10;99.90;;;;;;5073735;28;20175;-69
2021/01/24 10:01:31;;;;;;;34.50;13.60;;;1.80;99.90;;;;;;5073763;28;20175;-69
2021/01/24 10:03:57;;;;;;;22.37;13.30;;;1.90;99.90;;;;;;5073846;28;20256;-68
2021/01/24 10:06:22;;;;;;;26.63;15.27;;;1.90;99.90;;;;;;5073492;28;20186;-69
2021/01/24 10:08:48;;;;;;;18.93;11.77;;;2.20;99.90;;;;;;5073324;28;20632;-69
2021/01/24 10:11:14;;;;;;;24.50;14.60;;;2.00;99.90;;;;;;5073329;28;20199;-69
2021/01/24 10:13:41;;;;;;;20.27;12.77;;;1.90;99.90;;;;;;5073199;28;20199;-69
2021/01/24 10:16:07;;;;;;;25.08;12.77;;;2.00;99.90;;;;;;5073074;28;20168;-69
2021/01/24 10:18:33;;;;;;;26.00;14.02;;;2.00;99.90;;;;;;5073231;28;20250;-69
2021/01/24 10:20:58;;;;;;;18.40;10.83;;;2.00;99.90;;;;;;5073316;28;20234;-68
2021/01/24 10:23:25;;;;;;;23.83;14.40;;;2.00;99.90;;;;;;5073179;28;20201;-68
2021/01/24 10:25:54;;;;;;;23.42;12.73;;;2.10;99.90;;;;;;5073204;28;20167;-69
2021/01/24 10:28:21;;;;;;;25.90;13.90;;;2.00;99.90;;;;;;5072999;28;20251;-69
2021/01/24 10:30:47;;;;;;;21.10;11.77;;;1.90;99.90;;;;;;5072835;28;20188;-70
2021/01/24 10:33:13;;;;;;;19.47;10.70;;;2.20;99.90;;;;;;5073123;28;20195;-69
2021/01/24 10:35:39;;;;;;;22.10;12.07;;;2.00;99.90;;;;;;5072928;28;20160;-68
2021/01/24 10:38:05;;;;;;;14.57;9.93;;;2.10;99.90;;;;;;5072991;28;20637;-68
2021/01/24 10:40:31;;;;;;;20.70;10.53;;;1.90;99.90;;;;;;5072981;28;20233;-68
2021/01/24 10:42:56;;;;;;;20.73;11.60;;;1.90;99.90;;;;;;5073162;28;20251;-69
2021/01/24 10:45:23;;;;;;;17.93;10.80;;;1.90;99.90;;;;;;5072908;28;20417;-68
2021/01/24 10:47:48;;;;;;;19.52;10.18;;;2.00;99.90;;;;;;5072623;28;20416;-68
2021/01/24 10:50:14;;;;;;;18.60;10.47;;;1.90;99.90;;;;;;5072650;28;20545;-68
2021/01/24 10:52:40;;;;;;;16.80;9.97;;;2.00;99.90;;;;;;5072594;28;20195;-69
2021/01/24 10:55:06;;;;;;;21.57;10.87;;;2.00;99.90;;;;;;5072930;28;20629;-68
2021/01/24 10:57:32;;;;;;;16.45;11.00;;;2.00;99.90;;;;;;5072990;28;20409;-69
2021/01/24 10:59:57;;;;;;;20.60;10.50;;;1.90;99.90;;;;;;5073373;28;20184;-69
2021/01/24 11:02:23;;;;;;;17.30;9.70;;;2.00;99.90;;;;;;5073461;28;20217;-69
2021/01/24 11:04:49;;;;;;;23.53;12.37;;;2.10;99.90;;;;;;5072648;28;20168;-69
2021/01/24 11:07:14;;;;;;;16.67;11.07;;;2.00;99.90;;;;;;5072926;28;20179;-69
2021/01/24 11:09:40;;;;;;;17.77;7.93;;;2.10;99.90;;;;;;5072553;28;20605;-68
2021/01/24 11:12:05;;;;;;;18.53;11.37;;;2.10;99.90;;;;;;5072615;28;20199;-69
2021/01/24 11:14:31;;;;;;;17.67;9.80;;;2.10;99.90;;;;;;5072860;28;20172;-68
2021/01/24 11:16:56;;;;;;;17.67;10.77;;;2.00;99.90;;;;;;5073273;28;20187;-68
2021/01/24 11:19:22;;;;;;;16.20;10.43;;;2.20;99.90;;;;;;5073062;28;20183;-68
2021/01/24 11:21:48;;;;;;;14.90;10.60;;;2.20;99.90;;;;;;5072880;28;20664;-69
2021/01/24 11:24:13;;;;;;;19.00;12.00;;;2.30;99.90;;;;;;5072851;28;20627;-68
2021/01/24 11:26:39;;;;;;;17.90;10.60;;;2.40;99.90;;;;;;5072621;28;20168;-69
2021/01/24 11:29:05;;;;;;;20.27;13.10;;;2.40;99.90;;;;;;5071212;28;20200;-69
2021/01/24 11:31:31;;;;;;;15.67;10.60;;;2.70;99.90;;;;;;5072460;28;20184;-68
2021/01/24 11:33:57;;;;;;;15.75;10.43;;;2.40;99.90;;;;;;5072662;28;20464;-69
2021/01/24 11:36:23;;;;;;;16.30;11.47;;;2.30;99.90;;;;;;5073010;28;20195;-69
2021/01/24 11:38:49;;;;;;;19.17;12.70;;;2.20;99.90;;;;;;5072473;28;20673;-68
2021/01/24 11:41:14;;;;;;;14.57;8.70;;;2.30;99.90;;;;;;5072332;28;20196;-68
2021/01/24 11:43:40;;;;;;;19.37;12.63;;;2.20;99.90;;;;;;5072502;28;20172;-69
2021/01/24 11:46:05;;;;;;;17.40;10.37;;;2.20;99.90;;;;;;5071078;28;20557;-69
2021/01/24 11:48:31;;;;;;;17.60;11.10;;;2.30;99.90;;;;;;5072204;28;20188;-67
2021/01/24 11:50:56;;;;;;;16.10;12.10;;;2.30;99.90;;;;;;5072899;28;20548;-68
2021/01/24 11:53:23;;;;;;;14.20;10.47;;;2.50;99.90;;;;;;5072585;28;20199;-68
2021/01/24 11:55:52;;;;;;;14.55;9.18;;;2.30;99.90;;;;;;5072606;28;20572;-69
2021/01/24 11:58:18;;;;;;;18.65;11.70;;;2.20;99.90;;;;;;5072385;28;20211;-69
2021/01/24 12:00:44;;;;;;;18.23;11.98;;;2.30;99.90;;;;;;5070694;28;20230;-68
2021/01/24 12:03:10;;;;;;;25.63;12.00;;;2.30;99.90;;;;;;5072276;28;20318;-68
2021/01/24 12:05:35;;;;;;;18.10;12.00;;;2.40;99.90;;;;;;5072356;28;20266;-68
2021/01/24 12:08:01;;;;;;;21.37;12.97;;;2.40;99.90;;;;;;5072120;28;20172;-68
2021/01/24 12:10:26;;;;;;;16.30;10.50;;;2.40;99.90;;;;;;5072100;28;20664;-69
2021/01/24 12:12:52;;;;;;;20.80;13.53;;;2.30;99.90;;;;;;5071927;28;20188;-67
2021/01/24 12:15:17;;;;;;;18.33;13.10;;;2.30;99.90;;;;;;5072560;28;20652;-68
2021/01/24 12:17:43;;;;;;;22.30;11.93;;;2.50;99.90;;;;;;5075754;28;20170;-67
2021/01/24 12:20:10;;;;;;;21.47;12.40;;;2.50;99.90;;;;;;5075932;28;20187;-68
2021/01/24 12:22:35;;;;;;;17.42;11.55;;;2.60;99.90;;;;;;5075691;28;20164;-69
2021/01/24 12:25:01;;;;;;;18.40;10.50;;;2.70;99.90;;;;;;5075431;28;20513;-68
2021/01/24 12:27:26;;;;;;;16.70;11.03;;;2.70;99.90;;;;;;5075510;28;20176;-68
2021/01/24 12:29:52;;;;;;;19.33;12.07;;;2.70;99.90;;;;;;5075367;28;20191;-68
2021/01/24 12:32:18;;;;;;;22.30;11.50;;;3.00;99.90;;;;;;5075286;28;20204;-68
2021/01/24 12:34:43;;;;;;;15.50;10.40;;;3.10;99.90;;;;;;5075411;28;20206;-68
2021/01/24 12:37:09;;;;;;;15.23;10.30;;;3.10;99.90;;;;;;5075275;28;20160;-68
2021/01/24 12:39:34;;;;;;;14.97;10.33;;;2.90;99.90;;;;;;5075039;28;20656;-69
2021/01/24 12:42:00;;;;;;;20.43;11.90;;;3.10;99.90;;;;;;5075244;28;20172;-68
2021/01/24 12:44:25;;;;;;;15.83;9.37;;;3.00;99.90;;;;;;5075236;28;20180;-68
2021/01/24 12:46:51;;;;;;;18.03;10.70;;;3.10;99.90;;;;;;5075375;28;20160;-68
2021/01/24 12:49:16;;;;;;;15.30;10.30;;;3.00;99.90;;;;;;5075014;28;20196;-68
2021/01/24 12:51:42;;;;;;;19.33;10.67;;;3.10;99.90;;;;;;5075320;28;20251;-68
2021/01/24 12:54:09;;;;;;;20.60;10.40;;;3.10;99.90;;;;;;5075437;28;20247;-68